createdAt,value
2022-08-09T00:00:28.687Z,21.32
2022-08-09T00:02:55.513Z,21.34
2022-08-09T00:06:17.601Z,21.43
2022-08-09T00:08:13.151Z,21.38
2022-08-09T00:10:58.618Z,21.60
2022-08-09T00:13:25.349Z,21.52
2022-08-09T00:15:59.894Z,21.65
2022-08-09T00:18:34.916Z,21.67
2022-08-09T00:21:04.318Z,21.79
2022-08-09T00:23:54.930Z,21.95
2022-08-09T00:26:17.746Z,21.93
2022-08-09T00:28:52.378Z,21.82
2022-08-09T00:32:00.055Z,21.39
2022-08-09T00:34:11.019Z,21.33
2022-08-09T00:36:38.181Z,21.48
2022-08-09T00:39:10.967Z,21.58
2022-08-09T00:44:17.149Z,21.60
2022-08-09T00:44:42.760Z,21.74
2022-08-09T00:47:24.710Z,21.77
2022-08-09T00:49:55.120Z,21.84
2022-08-09T00:52:30.615Z,21.88
2022-08-09T00:55:00.152Z,21.28
2022-08-09T00:57:34.435Z,21.45
2022-08-09T01:00:21.391Z,21.22
2022-08-09T01:03:17.100Z,21.39
2022-08-09T01:06:03.891Z,21.47
2022-08-09T01:09:25.558Z,21.29
2022-08-09T01:12:27.939Z,21.57
2022-08-09T01:15:16.656Z,21.36
2022-08-09T01:18:07.319Z,21.24
2022-08-09T01:21:12.476Z,21.20
2022-08-09T01:24:09.953Z,21.24
2022-08-09T01:26:57.833Z,21.37
2022-08-09T01:29:56.386Z,21.46
2022-08-09T01:32:45.469Z,21.46
2022-08-09T01:35:38.748Z,21.25
2022-08-09T01:38:31.608Z,21.38
2022-08-09T01:41:32.342Z,21.48
2022-08-09T01:44:02.387Z,21.52
2022-08-09T01:46:48.312Z,21.47
2022-08-09T01:49:17.325Z,21.49
2022-08-09T01:51:53.504Z,21.05
2022-08-09T01:54:39.659Z,21.03
2022-08-09T01:57:16.461Z,21.11
2022-08-09T01:59:51.928Z,21.10
2022-08-09T02:02:22.202Z,21.02
2022-08-09T02:04:50.845Z,20.84
2022-08-09T02:08:38.992Z,21.02
2022-08-09T02:10:14.222Z,21.14
2022-08-09T02:13:06.705Z,21.22
2022-08-09T02:15:50.628Z,21.11
2022-08-09T02:18:20.990Z,21.01
2022-08-09T02:20:55.165Z,20.92
2022-08-09T02:23:42.911Z,20.79
2022-08-09T02:26:24.974Z,20.57
2022-08-09T02:28:59.585Z,20.75
2022-08-09T02:31:44.845Z,20.69
2022-08-09T02:34:41.014Z,21.11
2022-08-09T02:37:08.032Z,21.20
2022-08-09T02:39:45.374Z,21.25
2022-08-09T02:42:24.877Z,21.29
2022-08-09T02:44:59.023Z,21.31
2022-08-09T02:47:57.654Z,21.34
2022-08-09T02:50:57.113Z,21.34
2022-08-09T02:53:31.531Z,21.35
2022-08-09T02:56:03.429Z,21.32
2022-08-09T02:58:37.530Z,21.29
2022-08-09T03:01:08.008Z,21.36
2022-08-09T03:04:18.134Z,21.19
2022-08-09T03:06:36.401Z,21.20
2022-08-09T03:09:04.215Z,21.22
2022-08-09T03:12:10.652Z,21.21
2022-08-09T03:14:26.535Z,21.21
2022-08-09T03:16:58.318Z,21.20
2022-08-09T03:19:59.116Z,21.19
2022-08-09T03:22:41.414Z,21.12
2022-08-09T03:25:59.303Z,21.11
2022-08-09T03:28:20.619Z,21.10
2022-08-09T03:30:49.078Z,20.95
2022-08-09T03:33:19.637Z,20.67
2022-08-09T03:36:15.586Z,20.88
2022-08-09T03:38:43.481Z,20.76
2022-08-09T03:41:18.605Z,20.91
2022-08-09T03:44:03.341Z,20.23
2022-08-09T03:46:34.943Z,20.41
2022-08-09T03:49:07.845Z,20.03
2022-08-09T03:51:54.205Z,20.36
2022-08-09T03:54:31.377Z,20.44
2022-08-09T03:57:22.995Z,20.52
2022-08-09T03:59:54.705Z,20.62
2022-08-09T04:02:27.984Z,20.67
2022-08-09T04:05:01.213Z,20.74
2022-08-09T04:07:47.608Z,20.82
2022-08-09T04:10:29.257Z,20.86
2022-08-09T04:13:01.061Z,20.86
2022-08-09T04:16:18.613Z,20.87
2022-08-09T04:18:19.228Z,20.90
2022-08-09T04:20:51.444Z,20.94
2022-08-09T04:23:24.661Z,21.00
2022-08-09T04:25:54.774Z,21.03
2022-08-09T04:28:30.763Z,21.02
2022-08-09T04:31:09.392Z,21.08
2022-08-09T04:33:52.497Z,21.12
2022-08-09T04:36:28.180Z,21.11
2022-08-09T04:38:57.286Z,21.11
2022-08-09T04:41:32.364Z,21.15
2022-08-09T04:44:07.274Z,20.92
2022-08-09T04:47:04.560Z,21.01
2022-08-09T04:49:57.019Z,21.14
2022-08-09T04:52:27.496Z,21.11
2022-08-09T04:54:59.581Z,21.20
2022-08-09T04:57:59.172Z,21.33
2022-08-09T05:00:14.291Z,21.44
2022-08-09T05:02:44.304Z,21.29
2022-08-09T05:05:32.205Z,21.46
2022-08-09T05:08:14.801Z,21.49
2022-08-09T05:10:42.136Z,21.50
2022-08-09T05:13:09.700Z,21.55
2022-08-09T05:15:39.250Z,21.71
2022-08-09T05:18:37.906Z,21.58
2022-08-09T05:21:24.703Z,21.69
2022-08-09T05:24:15.312Z,21.81
2022-08-09T05:26:47.671Z,21.88
2022-08-09T05:29:22.222Z,22.07
2022-08-09T05:31:56.695Z,22.31
2022-08-09T05:34:30.983Z,22.51
2022-08-09T05:37:06.047Z,22.62
2022-08-09T05:39:49.586Z,22.70
2022-08-09T05:42:21.198Z,22.84
2022-08-09T05:44:50.779Z,22.88
2022-08-09T05:47:22.715Z,22.96
2022-08-09T05:50:25.038Z,23.08
2022-08-09T05:52:38.471Z,23.17
2022-08-09T05:55:43.176Z,23.27
2022-08-09T05:59:17.173Z,23.33
2022-08-09T06:01:43.665Z,23.33
2022-08-09T06:04:10.516Z,23.50
2022-08-09T06:06:40.753Z,23.23
2022-08-09T06:09:23.128Z,23.35
2022-08-09T06:11:57.978Z,23.33
2022-08-09T06:14:25.099Z,23.32
2022-08-09T06:16:52.676Z,23.62
2022-08-09T06:19:19.422Z,23.54
2022-08-09T06:21:51.626Z,23.61
2022-08-09T06:24:25.608Z,23.90
2022-08-09T06:26:52.942Z,23.76
2022-08-09T06:29:19.640Z,23.94
2022-08-09T06:32:09.237Z,23.95
2022-08-09T06:34:35.056Z,23.88
2022-08-09T06:37:03.614Z,24.30
2022-08-09T06:39:49.165Z,24.28
2022-08-09T06:42:30.618Z,24.51
2022-08-09T06:44:58.505Z,24.22
2022-08-09T06:47:25.686Z,24.41
2022-08-09T06:50:14.606Z,24.83
2022-08-09T06:52:48.452Z,24.90
2022-08-09T06:55:17.888Z,24.67
2022-08-09T06:58:02.585Z,24.86
2022-08-09T07:00:48.873Z,24.95
2022-08-09T07:03:27.950Z,25.58
2022-08-09T07:08:30.742Z,26.22
2022-08-09T07:10:59.625Z,26.00
2022-08-09T07:13:30.582Z,25.79
2022-08-09T07:16:43.303Z,26.00
2022-08-09T07:18:47.502Z,25.95
2022-08-09T07:21:17.138Z,25.80
2022-08-09T07:23:56.745Z,25.71
2022-08-09T07:26:26.482Z,25.88
2022-08-09T07:29:08.662Z,26.40
2022-08-09T07:31:44.926Z,26.48
2022-08-09T07:34:20.143Z,26.29
2022-08-09T07:36:49.457Z,26.61
2022-08-09T07:39:20.306Z,26.93
2022-08-09T07:42:03.880Z,26.95
2022-08-09T07:44:52.062Z,26.24
2022-08-09T07:47:19.304Z,26.43
2022-08-09T07:50:04.788Z,26.92
2022-08-09T07:52:35.814Z,27.21
2022-08-09T07:55:08.877Z,27.38
2022-08-09T07:57:36.547Z,27.24
2022-08-09T08:00:36.145Z,26.40
2022-08-09T08:03:08.308Z,26.81
2022-08-09T08:05:54.051Z,26.80
2022-08-09T08:09:02.145Z,27.15
2022-08-09T08:12:11.233Z,27.56
2022-08-09T08:13:57.282Z,28.00
2022-08-09T08:20:51.037Z,27.52
2022-08-09T08:23:18.708Z,27.82
2022-08-09T08:25:49.878Z,27.87
2022-08-09T08:28:26.199Z,28.21
2022-08-09T08:31:00.802Z,28.44
2022-08-09T08:33:40.731Z,28.39
2022-08-09T08:36:28.407Z,27.60
2022-08-09T08:38:56.695Z,28.33
2022-08-09T08:41:24.715Z,28.41
2022-08-09T08:44:09.572Z,28.38
2022-08-09T08:46:59.385Z,28.52
2022-08-09T08:49:38.927Z,28.42
2022-08-09T08:52:48.433Z,28.01
2022-08-09T08:55:05.563Z,28.30
2022-08-09T09:18:30.448Z,29.09
2022-08-09T09:20:57.763Z,28.61
2022-08-09T09:24:21.909Z,29.17
2022-08-09T09:26:59.043Z,29.48
2022-08-09T09:56:04.443Z,29.62
2022-08-09T10:41:56.599Z,30.31
2022-08-09T11:03:11.987Z,30.71
2022-08-09T11:04:29.840Z,30.55
2022-08-09T11:20:22.061Z,31.05
2022-08-09T11:25:47.765Z,31.34
2022-08-09T11:28:54.320Z,31.59
2022-08-09T11:31:49.153Z,31.67
2022-08-09T11:34:56.871Z,31.59
2022-08-09T11:37:31.237Z,31.02
2022-08-09T11:40:10.404Z,30.90
2022-08-09T11:42:50.022Z,30.58
2022-08-09T11:45:42.572Z,30.91
2022-08-09T11:48:19.450Z,30.98
2022-08-09T11:51:21.316Z,30.67
2022-08-09T11:53:59.947Z,30.76
2022-08-09T11:56:41.690Z,30.48
2022-08-09T11:59:30.402Z,30.97
2022-08-09T12:02:34.126Z,31.55
2022-08-09T12:04:47.345Z,31.80
2022-08-09T12:07:14.921Z,31.94
2022-08-09T12:09:50.561Z,31.93
2022-08-09T12:12:20.490Z,31.89
2022-08-09T12:15:08.081Z,31.96
2022-08-09T12:17:43.539Z,32.10
2022-08-09T12:20:16.547Z,32.14
2022-08-09T12:23:07.159Z,32.21
2022-08-09T12:25:37.592Z,31.49
2022-08-09T12:29:13.166Z,31.64
2022-08-09T12:31:58.087Z,31.76
2022-08-09T12:34:13.614Z,31.75
2022-08-09T12:37:29.028Z,31.88
2022-08-09T12:40:38.989Z,31.98
2022-08-09T12:44:05.583Z,31.97
2022-08-09T12:46:40.743Z,31.16
2022-08-09T12:49:08.861Z,30.82
2022-08-09T12:52:00.886Z,31.35
2022-08-09T12:54:22.495Z,31.34
2022-08-09T12:56:54.135Z,31.57
2022-08-09T12:59:24.983Z,30.98
2022-08-09T13:02:11.566Z,31.39
2022-08-09T13:05:00.587Z,30.88
2022-08-09T13:07:51.004Z,31.33
2022-08-09T13:10:18.345Z,31.31
2022-08-09T13:13:08.905Z,30.98
2022-08-09T13:15:35.996Z,31.33
2022-08-09T13:18:09.415Z,31.50
2022-08-09T13:21:04.045Z,31.34
2022-08-09T13:24:16.029Z,31.07
2022-08-09T13:26:49.951Z,31.11
2022-08-09T13:29:28.361Z,30.37
2022-08-09T13:32:13.913Z,31.07
2022-08-09T13:34:46.226Z,30.72
2022-08-09T13:37:24.808Z,30.57
2022-08-09T13:41:50.483Z,30.91
2022-08-09T13:48:10.618Z,30.72
2022-08-09T13:50:37.830Z,30.83
2022-08-09T13:53:05.375Z,30.98
2022-08-09T13:55:34.392Z,30.33
2022-08-09T14:00:50.587Z,30.30
2022-08-09T14:04:03.500Z,30.70
2022-08-09T14:06:19.426Z,30.73
2022-08-09T14:08:53.764Z,30.90
2022-08-09T14:11:20.830Z,31.08
2022-08-09T14:14:23.002Z,31.03
2022-08-09T14:19:15.530Z,30.73
2022-08-09T14:21:47.385Z,30.93
2022-08-09T14:24:18.790Z,30.89
2022-08-09T14:26:51.150Z,30.73
2022-08-09T14:29:25.772Z,30.79
2022-08-09T14:32:11.107Z,30.80
2022-08-09T14:34:40.949Z,31.03
2022-08-09T14:37:08.523Z,30.95
2022-08-09T14:39:47.913Z,30.95
2022-08-09T14:42:32.158Z,30.97
2022-08-09T14:46:51.435Z,31.05
2022-08-09T14:47:57.966Z,30.78
2022-08-09T14:50:31.130Z,30.78
2022-08-09T14:52:59.762Z,30.88
2022-08-09T14:55:32.394Z,31.04
2022-08-09T14:58:05.002Z,30.72
2022-08-09T15:00:35.202Z,30.44
2022-08-09T15:03:06.114Z,30.75
2022-08-09T15:05:34.293Z,31.02
2022-08-09T15:08:04.461Z,30.92
2022-08-09T15:10:32.711Z,30.47
2022-08-09T15:13:02.968Z,30.53
2022-08-09T15:15:30.620Z,30.34
2022-08-09T15:18:01.509Z,30.47
2022-08-09T15:22:01.085Z,30.41
2022-08-09T15:28:28.463Z,30.51
2022-08-09T15:31:13.215Z,30.57
2022-08-09T15:34:17.282Z,30.64
2022-08-09T15:36:30.424Z,30.79
2022-08-09T15:39:00.022Z,30.67
2022-08-09T15:41:31.366Z,30.51
2022-08-09T15:43:59.815Z,30.76
2022-08-09T15:46:32.900Z,30.94
2022-08-09T15:49:22.975Z,30.82
2022-08-09T15:54:31.380Z,30.32
2022-08-09T15:57:07.306Z,30.70
2022-08-09T15:59:36.699Z,30.01
2022-08-09T16:02:04.447Z,29.78
2022-08-09T16:04:34.465Z,30.12
2022-08-09T16:07:04.191Z,30.46
2022-08-09T16:09:32.703Z,30.56
2022-08-09T16:12:17.618Z,30.57
2022-08-09T16:14:44.635Z,30.58
2022-08-09T16:17:12.755Z,30.73
2022-08-09T16:19:49.459Z,29.89
2022-08-09T16:22:30.500Z,29.91
2022-08-09T16:24:59.529Z,30.16
2022-08-09T16:27:29.953Z,30.02
2022-08-09T16:30:00.739Z,29.80
2022-08-09T16:33:11.590Z,29.93
2022-08-09T16:38:19.912Z,29.72
2022-08-09T16:40:49.363Z,30.08
2022-08-09T16:43:18.361Z,30.26
2022-08-09T16:45:53.361Z,30.42
2022-08-09T16:48:59.960Z,30.46
2022-08-09T16:52:06.445Z,30.52
2022-08-09T16:54:55.629Z,30.58
2022-08-09T16:57:22.437Z,30.60
2022-08-09T16:59:57.815Z,30.57
2022-08-09T17:02:25.483Z,30.58
2022-08-09T17:04:52.708Z,30.52
2022-08-09T17:08:45.395Z,30.44
2022-08-09T17:10:09.174Z,30.40
2022-08-09T17:12:37.848Z,30.34
2022-08-09T17:15:31.159Z,30.34
2022-08-09T17:17:51.781Z,30.29
2022-08-09T17:20:35.749Z,30.26
2022-08-09T17:24:21.101Z,30.19
2022-08-09T17:26:17.548Z,30.30
2022-08-09T17:28:56.132Z,30.23
2022-08-09T17:31:23.985Z,30.20
2022-08-09T17:33:56.533Z,30.21
2022-08-09T17:36:25.963Z,30.21
2022-08-09T17:50:56.324Z,30.02
2022-08-09T17:53:26.140Z,29.97
2022-08-09T17:55:57.629Z,29.95
2022-08-09T17:58:27.771Z,29.95
2022-08-09T18:00:58.569Z,29.92
2022-08-09T18:03:31.708Z,29.91
2022-08-09T18:06:00.869Z,29.84
2022-08-09T18:08:28.130Z,29.82
2022-08-09T18:11:02.107Z,29.80
2022-08-09T18:13:43.019Z,29.69
2022-08-09T18:16:30.234Z,29.64
2022-08-09T18:18:59.337Z,29.60
2022-08-09T18:21:31.848Z,29.53
2022-08-09T18:24:14.254Z,29.40
2022-08-09T18:26:46.412Z,29.32
2022-08-09T18:30:42.269Z,29.35
2022-08-09T18:32:05.073Z,29.33
2022-08-09T18:34:35.149Z,29.26
2022-08-09T18:37:10.218Z,29.29
2022-08-09T18:39:52.825Z,29.32
2022-08-09T18:42:19.633Z,29.36
2022-08-09T18:44:54.992Z,29.35
2022-08-09T18:47:24.123Z,29.38
2022-08-09T18:49:54.393Z,29.33
2022-08-09T18:52:24.912Z,28.99
2022-08-09T18:55:01.492Z,28.49
2022-08-09T18:57:38.673Z,27.55
2022-08-09T19:00:16.408Z,27.56
2022-08-09T19:02:50.842Z,27.43
2022-08-09T19:05:28.696Z,27.07
2022-08-09T19:08:10.590Z,27.16
2022-08-09T19:10:40.815Z,26.24
2022-08-09T19:13:23.539Z,25.32
2022-08-09T19:15:58.620Z,25.57
2022-08-09T19:18:32.957Z,25.42
2022-08-09T19:21:01.181Z,25.55
2022-08-09T19:24:35.417Z,25.94
2022-08-09T19:26:16.086Z,25.90
2022-08-09T19:28:48.990Z,26.04
2022-08-09T19:31:16.844Z,26.11
2022-08-09T19:33:43.853Z,25.93
2022-08-09T19:36:13.265Z,26.21
2022-08-09T19:38:40.134Z,25.50
2022-08-09T19:41:06.870Z,25.50
2022-08-09T19:44:01.642Z,25.23
2022-08-09T19:46:35.384Z,25.56
2022-08-09T19:50:09.150Z,25.90
2022-08-09T19:51:57.024Z,25.85
2022-08-09T19:54:27.496Z,25.13
2022-08-09T19:57:03.515Z,25.79
2022-08-09T19:59:58.827Z,26.10
2022-08-09T20:04:08.157Z,25.72
2022-08-09T20:05:10.348Z,25.79
2022-08-09T20:07:59.181Z,26.43
2022-08-09T20:10:34.769Z,26.34
2022-08-09T20:13:05.232Z,25.63
2022-08-09T20:16:33.142Z,26.20
2022-08-09T20:18:19.689Z,25.55
2022-08-09T20:20:47.201Z,25.51
2022-08-09T20:23:19.452Z,25.26
2022-08-09T20:25:51.910Z,25.48
2022-08-09T20:28:34.342Z,25.41
2022-08-09T20:31:02.846Z,25.87
2022-08-09T20:33:41.347Z,25.72
2022-08-09T20:36:12.333Z,25.55
2022-08-09T20:41:35.530Z,25.28
2022-08-09T20:44:10.559Z,25.39
2022-08-09T20:46:42.797Z,25.56
2022-08-09T20:49:16.166Z,25.50
2022-08-09T20:51:44.177Z,25.22
2022-08-09T20:54:12.504Z,24.98
2022-08-09T20:56:39.500Z,24.64
2022-08-09T20:59:07.738Z,24.91
2022-08-09T21:01:50.302Z,24.97
2022-08-09T21:05:54.350Z,25.28
2022-08-09T21:07:12.375Z,25.09
2022-08-09T21:09:45.577Z,25.05
2022-08-09T21:14:48.397Z,25.49
2022-08-09T21:18:22.214Z,24.90
2022-08-09T21:20:05.217Z,25.32
2022-08-09T21:22:52.647Z,25.03
2022-08-09T21:25:39.947Z,25.44
2022-08-09T21:28:11.827Z,25.36
2022-08-09T21:30:40.320Z,25.36
2022-08-09T21:33:08.094Z,25.29
2022-08-09T21:35:39.479Z,25.27
2022-08-09T21:38:09.356Z,25.69
2022-08-09T21:40:37.194Z,25.97
2022-08-09T21:43:06.182Z,25.48
2022-08-09T21:45:38.787Z,24.75
2022-08-09T21:48:07.104Z,24.72
2022-08-09T21:50:36.031Z,25.34
2022-08-09T21:53:23.815Z,25.20
2022-08-09T21:55:54.469Z,25.07
2022-08-09T21:58:21.090Z,24.64
2022-08-09T22:00:55.924Z,24.60
2022-08-09T22:03:25.277Z,24.27
2022-08-09T22:05:53.231Z,24.85
2022-08-09T22:08:24.489Z,25.11
2022-08-09T22:11:49.452Z,24.81
2022-08-09T22:13:43.389Z,24.91
2022-08-09T22:16:10.976Z,25.19
2022-08-09T22:18:53.614Z,24.83
2022-08-09T22:21:24.242Z,25.27
2022-08-09T22:23:59.386Z,24.94
2022-08-09T22:26:35.192Z,24.72
2022-08-09T22:29:07.452Z,24.73
2022-08-09T22:31:36.506Z,24.98
2022-08-09T22:34:03.645Z,24.87
2022-08-09T22:36:45.708Z,24.66
2022-08-09T22:39:46.876Z,24.58
2022-08-09T22:42:06.081Z,24.14
2022-08-09T22:44:48.411Z,24.58
2022-08-09T22:48:13.476Z,24.63
2022-08-09T22:50:13.511Z,25.07
2022-08-09T22:52:41.255Z,23.98
2022-08-09T22:55:08.569Z,24.25
2022-08-09T22:57:59.718Z,23.88
2022-08-09T23:00:29.242Z,24.05
2022-08-09T23:02:56.415Z,24.06
2022-08-09T23:05:23.117Z,23.78
2022-08-09T23:08:21.776Z,23.95
2022-08-09T23:10:50.050Z,23.59
2022-08-09T23:13:16.651Z,24.16
2022-08-09T23:15:43.280Z,23.97
2022-08-09T23:18:29.122Z,23.96
2022-08-09T23:20:55.975Z,23.73
2022-08-09T23:23:22.576Z,23.81
2022-08-09T23:25:49.459Z,23.99
2022-08-09T23:28:16.311Z,24.50
2022-08-09T23:30:51.402Z,24.55
2022-08-09T23:33:20.242Z,24.38
2022-08-09T23:36:04.637Z,24.19
2022-08-09T23:38:33.358Z,23.94
2022-08-09T23:40:59.952Z,23.71
2022-08-09T23:43:26.552Z,24.05
2022-08-09T23:45:53.214Z,23.57
2022-08-09T23:48:19.899Z,23.94
2022-08-09T23:50:46.597Z,24.01
2022-08-09T23:53:13.392Z,23.73
2022-08-09T23:55:48.351Z,23.82
2022-08-09T23:58:26.102Z,23.71
